createdAt,value
2018-06-04T00:00:41.848Z,46.13
2018-06-04T00:03:09.922Z,45.00
2018-06-04T00:05:38.009Z,49.17
2018-06-04T00:08:06.146Z,43.73
2018-06-04T00:10:34.341Z,40.63
2018-06-04T00:13:02.363Z,44.67
2018-06-04T00:15:30.401Z,39.23
2018-06-04T00:17:58.414Z,45.13
2018-06-04T00:20:26.798Z,44.97
2018-06-04T00:22:54.905Z,42.37
2018-06-04T00:25:22.998Z,41.20
2018-06-04T00:27:50.977Z,43.57
2018-06-04T00:30:19.034Z,39.43
2018-06-04T00:32:47.119Z,42.70
2018-06-04T00:35:15.116Z,43.20
2018-06-04T00:37:43.156Z,41.23
2018-06-04T00:40:11.253Z,39.97
2018-06-04T00:42:39.339Z,38.60
2018-06-04T00:45:07.504Z,39.23
2018-06-04T00:47:35.574Z,38.90
2018-06-04T00:50:03.715Z,39.00
2018-06-04T00:52:31.761Z,38.03
2018-06-04T00:54:59.838Z,41.80
2018-06-04T00:57:27.901Z,37.03
2018-06-04T00:59:56.028Z,38.70
2018-06-04T01:02:24.200Z,40.70
2018-06-04T01:04:52.280Z,37.70
2018-06-04T01:07:20.287Z,32.23
2018-06-04T01:09:48.377Z,37.17
2018-06-04T01:12:16.744Z,35.30
2018-06-04T01:14:44.897Z,38.77
2018-06-04T01:17:12.968Z,42.00
2018-06-04T01:19:41.001Z,36.80
2018-06-04T01:22:09.008Z,36.40
2018-06-04T01:24:37.049Z,38.27
2018-06-04T01:27:05.075Z,38.90
2018-06-04T01:29:33.121Z,41.73
2018-06-04T01:32:01.113Z,38.03
2018-06-04T01:34:29.145Z,36.33
2018-06-04T01:36:57.212Z,37.73
2018-06-04T01:39:25.293Z,37.37
2018-06-04T01:41:53.337Z,38.03
2018-06-04T01:44:21.356Z,41.40
2018-06-04T01:46:49.463Z,41.67
2018-06-04T01:49:17.497Z,45.67
2018-06-04T01:51:45.467Z,46.60
2018-06-04T01:54:13.519Z,42.50
2018-06-04T01:56:41.567Z,44.50
2018-06-04T01:59:09.584Z,43.20
2018-06-04T02:01:37.583Z,46.07
2018-06-04T02:04:05.804Z,40.00
2018-06-04T02:06:33.846Z,45.83
2018-06-04T02:09:01.922Z,52.33
2018-06-04T02:11:29.949Z,43.27
2018-06-04T02:13:58.010Z,46.70
2018-06-04T02:16:26.044Z,45.53
2018-06-04T02:18:54.109Z,47.53
2018-06-04T02:21:22.127Z,45.23
2018-06-04T02:23:50.217Z,54.00
2018-06-04T02:26:43.744Z,50.63
2018-06-04T02:29:11.892Z,43.60
2018-06-04T02:31:39.940Z,50.60
2018-06-04T02:34:07.988Z,52.70
2018-06-04T02:36:36.081Z,51.57
2018-06-04T02:39:05.509Z,58.10
2018-06-04T02:41:33.584Z,56.17
2018-06-04T02:44:01.568Z,56.80
2018-06-04T02:46:29.628Z,49.43
2018-06-04T02:48:57.644Z,54.47
2018-06-04T02:51:25.731Z,63.47
2018-06-04T02:53:53.847Z,55.10
2018-06-04T02:56:21.914Z,59.37
2018-06-04T02:58:49.995Z,60.80
2018-06-04T03:01:17.995Z,66.60
2018-06-04T03:03:46.146Z,55.50
2018-06-04T03:06:14.224Z,60.40
2018-06-04T03:08:42.346Z,58.63
2018-06-04T03:11:10.442Z,57.97
2018-06-04T03:13:38.491Z,57.50
2018-06-04T03:16:06.525Z,56.20
2018-06-04T03:18:34.585Z,60.50
2018-06-04T03:21:02.594Z,57.87
2018-06-04T03:23:30.628Z,56.90
2018-06-04T03:25:58.705Z,60.93
2018-06-04T03:28:27.745Z,54.93
2018-06-04T03:30:55.813Z,59.73
2018-06-04T03:33:24.863Z,65.43
2018-06-04T03:35:52.915Z,57.43
2018-06-04T03:38:20.956Z,51.70
2018-06-04T03:40:49.024Z,59.43
2018-06-04T03:43:17.119Z,53.23
2018-06-04T03:45:45.248Z,52.60
2018-06-04T03:48:13.373Z,55.17
2018-06-04T03:50:41.419Z,57.10
2018-06-04T03:53:09.505Z,59.93
2018-06-04T03:55:37.565Z,52.20
2018-06-04T03:58:05.748Z,53.27
2018-06-04T04:00:33.806Z,54.87
2018-06-04T04:03:02.100Z,51.50
2018-06-04T04:05:30.337Z,61.47
2018-06-04T04:07:58.367Z,58.03
2018-06-04T04:10:26.412Z,55.57
2018-06-04T04:12:54.460Z,56.90
2018-06-04T04:15:22.592Z,56.27
2018-06-04T04:17:50.688Z,54.83
2018-06-04T04:20:18.758Z,61.23
2018-06-04T04:22:46.702Z,56.53
2018-06-04T04:25:14.774Z,60.20
2018-06-04T04:27:42.970Z,57.57
2018-06-04T04:30:10.991Z,54.73
2018-06-04T04:32:38.987Z,58.53
2018-06-04T04:35:07.043Z,50.87
2018-06-04T04:37:35.117Z,53.47
2018-06-04T04:40:03.265Z,53.30
2018-06-04T04:42:31.457Z,52.93
2018-06-04T04:44:59.459Z,54.50
2018-06-04T04:47:27.473Z,56.43
2018-06-04T04:49:55.442Z,54.50
2018-06-04T04:52:23.545Z,53.13
2018-06-04T04:54:51.611Z,51.33
2018-06-04T04:57:19.675Z,53.50
2018-06-04T04:59:47.817Z,53.83
2018-06-04T05:02:15.903Z,49.73
2018-06-04T05:04:43.879Z,48.87
2018-06-04T05:07:11.903Z,49.17
2018-06-04T05:09:40.037Z,51.93
2018-06-04T05:12:08.030Z,50.00
2018-06-04T05:14:36.955Z,51.07
2018-06-04T05:17:05.009Z,50.57
2018-06-04T05:19:32.981Z,45.93
2018-06-04T05:22:01.076Z,44.07
2018-06-04T05:24:29.121Z,46.23
2018-06-04T05:26:57.203Z,53.57
2018-06-04T05:29:25.204Z,40.40
2018-06-04T05:31:53.293Z,44.27
2018-06-04T05:34:21.335Z,46.10
2018-06-04T05:36:49.359Z,41.07
2018-06-04T05:39:17.396Z,39.17
2018-06-04T05:41:45.540Z,39.30
2018-06-04T05:44:13.534Z,42.00
2018-06-04T05:46:41.612Z,41.93
2018-06-04T05:49:09.608Z,42.90
2018-06-04T05:51:37.583Z,42.30
2018-06-04T05:54:05.606Z,39.53
2018-06-04T05:56:33.587Z,42.27
2018-06-04T05:59:01.709Z,44.37
2018-06-04T06:01:29.881Z,39.37
2018-06-04T06:03:57.968Z,40.90
2018-06-04T06:06:26.076Z,41.00
2018-06-04T06:08:54.054Z,42.80
2018-06-04T06:11:22.097Z,41.77
2018-06-04T06:13:50.148Z,44.03
2018-06-04T06:16:18.247Z,43.70
2018-06-04T06:18:46.210Z,40.30
2018-06-04T06:21:14.240Z,39.50
2018-06-04T06:23:42.304Z,42.07
2018-06-04T06:26:10.281Z,39.23
2018-06-04T06:28:38.327Z,42.23
2018-06-04T06:31:06.495Z,39.33
2018-06-04T06:33:34.612Z,38.50
2018-06-04T06:36:02.681Z,39.80
2018-06-04T06:38:30.803Z,38.23
2018-06-04T06:40:58.896Z,34.53
2018-06-04T06:43:26.864Z,35.20
2018-06-04T06:45:54.937Z,35.87
2018-06-04T06:48:22.915Z,34.90
2018-06-04T06:50:50.910Z,32.03
2018-06-04T06:53:18.986Z,32.90
2018-06-04T06:55:47.203Z,33.13
2018-06-04T06:58:15.256Z,28.70
2018-06-04T07:00:43.307Z,27.00
2018-06-04T07:03:11.489Z,29.00
2018-06-04T07:05:39.492Z,30.37
2018-06-04T07:08:07.494Z,30.67
2018-06-04T07:10:35.552Z,28.87
2018-06-04T07:13:03.662Z,23.50
2018-06-04T07:15:31.679Z,28.63
2018-06-04T07:17:59.696Z,28.60
2018-06-04T07:20:31.429Z,29.10
2018-06-04T07:22:59.487Z,26.77
2018-06-04T07:25:27.532Z,26.17
2018-06-04T07:27:55.609Z,31.93
2018-06-04T07:30:23.797Z,24.60
2018-06-04T07:32:51.885Z,24.13
2018-06-04T07:35:19.967Z,25.33
2018-06-04T07:37:48.092Z,27.80
2018-06-04T07:40:16.109Z,29.27
2018-06-04T07:42:44.079Z,32.23
2018-06-04T07:45:12.311Z,25.20
2018-06-04T07:47:40.450Z,27.33
2018-06-04T07:50:09.416Z,26.67
2018-06-04T07:52:37.453Z,31.33
2018-06-04T07:55:05.556Z,28.87
2018-06-04T07:57:33.612Z,26.07
2018-06-04T08:00:01.768Z,25.50
2018-06-04T08:02:29.859Z,28.00
2018-06-04T08:04:57.889Z,28.50
2018-06-04T08:07:25.968Z,26.07
2018-06-04T08:09:54.061Z,31.90
2018-06-04T08:12:22.201Z,24.97
2018-06-04T08:14:50.263Z,24.20
2018-06-04T08:17:18.336Z,30.13
2018-06-04T08:19:46.389Z,25.83
2018-06-04T08:22:14.385Z,25.93
2018-06-04T08:24:42.391Z,26.20
2018-06-04T08:27:10.429Z,25.50
2018-06-04T08:29:38.530Z,23.73
2018-06-04T08:32:06.669Z,24.60
2018-06-04T08:34:35.577Z,20.83
2018-06-04T08:37:03.556Z,22.10
2018-06-04T08:39:31.574Z,21.53
2018-06-04T08:41:59.584Z,22.37
2018-06-04T08:44:27.626Z,25.87
2018-06-04T08:46:55.665Z,23.77
2018-06-04T08:49:23.676Z,20.73
2018-06-04T08:51:51.699Z,20.90
2018-06-04T08:54:19.834Z,24.30
2018-06-04T08:56:47.888Z,25.90
2018-06-04T08:59:15.912Z,25.10
2018-06-04T09:01:43.948Z,29.37
2018-06-04T09:04:11.989Z,23.53
2018-06-04T09:06:40.005Z,23.33
2018-06-04T09:09:08.067Z,23.27
2018-06-04T09:11:36.063Z,20.83
2018-06-04T09:14:04.066Z,21.10
2018-06-04T09:16:32.136Z,24.17
2018-06-04T09:19:00.203Z,22.80
2018-06-04T09:21:28.203Z,21.37
2018-06-04T09:23:56.278Z,21.03
2018-06-04T09:26:24.347Z,25.60
2018-06-04T09:28:52.330Z,23.90
2018-06-04T09:31:20.405Z,24.40
2018-06-04T09:33:48.592Z,23.17
2018-06-04T09:36:16.644Z,19.23
2018-06-04T09:38:44.656Z,19.90
2018-06-04T09:41:12.697Z,24.30
2018-06-04T09:43:40.716Z,19.23
2018-06-04T09:46:08.765Z,20.57
2018-06-04T09:48:36.925Z,17.13
2018-06-04T09:51:04.927Z,20.80
2018-06-04T09:53:32.952Z,20.97
2018-06-04T09:56:00.952Z,20.33
2018-06-04T09:58:29.085Z,20.77
2018-06-04T10:00:57.191Z,22.93
2018-06-04T10:03:25.286Z,17.83
2018-06-04T10:05:53.396Z,15.80
2018-06-04T10:08:21.503Z,15.90
2018-06-04T10:10:49.547Z,20.07
2018-06-04T10:13:17.738Z,20.30
2018-06-04T10:15:45.791Z,27.30
2018-06-04T10:18:13.861Z,20.30
2018-06-04T10:20:41.909Z,20.10
2018-06-04T10:23:10.020Z,20.03
2018-06-04T10:25:38.138Z,20.63
2018-06-04T10:28:06.210Z,22.67
2018-06-04T10:30:34.241Z,20.40
2018-06-04T10:33:02.269Z,18.83
2018-06-04T10:35:30.382Z,25.30
2018-06-04T10:37:58.403Z,21.50
2018-06-04T10:40:26.570Z,21.30
2018-06-04T10:42:54.597Z,20.23
2018-06-04T10:45:22.649Z,18.17
2018-06-04T10:47:50.680Z,17.07
2018-06-04T10:50:18.753Z,18.73
2018-06-04T10:52:46.777Z,18.00
2018-06-04T10:55:14.868Z,18.37
2018-06-04T10:57:43.088Z,18.10
2018-06-04T11:00:11.206Z,13.30
2018-06-04T11:02:39.373Z,12.83
2018-06-04T11:05:07.457Z,14.47
2018-06-04T11:07:35.483Z,16.07
2018-06-04T11:10:03.530Z,13.57
2018-06-04T11:12:31.652Z,17.53
2018-06-04T11:14:59.672Z,12.10
2018-06-04T11:17:27.749Z,11.70
2018-06-04T11:19:55.805Z,13.43
2018-06-04T11:22:24.796Z,15.43
2018-06-04T11:24:52.938Z,13.93
2018-06-04T11:27:20.959Z,14.27
2018-06-04T11:29:49.086Z,16.20
2018-06-04T11:32:17.199Z,15.00
2018-06-04T11:34:45.314Z,17.97
2018-06-04T11:37:13.386Z,20.53
2018-06-04T11:39:41.429Z,18.63
2018-06-04T11:42:09.494Z,21.87
2018-06-04T11:44:37.508Z,15.73
2018-06-04T11:47:05.560Z,15.17
2018-06-04T11:49:33.591Z,15.90
2018-06-04T11:52:01.607Z,16.30
2018-06-04T11:54:29.600Z,13.20
2018-06-04T11:56:57.590Z,12.03
2018-06-04T11:59:25.691Z,10.23
2018-06-04T12:01:53.691Z,10.50
2018-06-04T12:04:21.723Z,13.00
2018-06-04T12:06:49.777Z,15.30
2018-06-04T12:09:17.791Z,15.40
2018-06-04T12:11:45.898Z,14.17
2018-06-04T12:14:13.924Z,15.80
2018-06-04T12:16:42.009Z,14.07
2018-06-04T12:19:10.012Z,14.57
2018-06-04T12:21:38.059Z,17.00
2018-06-04T12:24:06.127Z,18.90
2018-06-04T12:26:34.181Z,15.77
2018-06-04T12:29:02.218Z,18.93
2018-06-04T12:31:30.337Z,14.80
2018-06-04T12:33:58.313Z,16.57
2018-06-04T12:36:26.388Z,12.10
2018-06-04T12:38:54.428Z,13.30
2018-06-04T12:41:22.473Z,15.40
2018-06-04T12:43:50.579Z,15.63
2018-06-04T12:46:18.675Z,13.73
2018-06-04T12:48:46.871Z,14.57
2018-06-04T12:51:15.000Z,14.60
2018-06-04T12:53:43.036Z,10.70
2018-06-04T12:56:11.151Z,14.33
2018-06-04T12:58:39.214Z,11.30
2018-06-04T13:01:07.327Z,8.73
2018-06-04T13:03:35.435Z,12.33
2018-06-04T13:06:03.524Z,10.77
2018-06-04T13:08:31.604Z,9.00
2018-06-04T13:10:59.720Z,11.90
2018-06-04T13:13:27.719Z,10.80
2018-06-04T13:15:55.835Z,9.43
2018-06-04T13:18:23.864Z,9.20
2018-06-04T13:20:51.987Z,11.50
2018-06-04T13:23:20.041Z,9.33
2018-06-04T13:25:48.128Z,10.27
2018-06-04T13:28:16.140Z,9.80
2018-06-04T13:30:44.282Z,11.13
2018-06-04T13:33:12.303Z,8.60
2018-06-04T13:35:40.320Z,10.87
2018-06-04T13:38:08.387Z,9.67
2018-06-04T13:40:36.536Z,8.03
2018-06-04T13:43:04.512Z,11.30
2018-06-04T13:45:32.660Z,9.47
2018-06-04T13:48:00.707Z,10.10
2018-06-04T13:50:28.849Z,11.63
2018-06-04T13:52:56.967Z,12.53
2018-06-04T13:55:25.054Z,13.73
2018-06-04T13:57:53.185Z,13.13
2018-06-04T14:00:21.205Z,12.20
2018-06-04T14:02:49.308Z,12.43
2018-06-04T14:05:17.451Z,11.63
2018-06-04T14:07:45.486Z,12.37
2018-06-04T14:10:13.563Z,12.97
2018-06-04T14:12:41.588Z,11.90
2018-06-04T14:15:09.629Z,12.97
2018-06-04T14:17:37.651Z,13.47
2018-06-04T14:20:05.708Z,12.80
2018-06-04T14:22:33.743Z,11.10
2018-06-04T14:25:01.762Z,10.43
2018-06-04T14:27:29.843Z,9.53
2018-06-04T14:29:57.908Z,8.80
2018-06-04T14:32:25.932Z,8.73
2018-06-04T14:34:53.971Z,10.20
2018-06-04T14:37:22.019Z,10.83
2018-06-04T14:39:50.091Z,12.67
2018-06-04T14:42:18.127Z,9.90
2018-06-04T14:44:46.176Z,9.20
2018-06-04T14:47:14.243Z,10.03
2018-06-04T14:49:42.387Z,10.93
2018-06-04T14:52:10.370Z,9.53
2018-06-04T14:54:38.359Z,9.30
2018-06-04T14:57:06.415Z,10.03
2018-06-04T14:59:34.398Z,12.63
2018-06-04T15:02:02.484Z,11.30
2018-06-04T15:04:30.512Z,11.50
2018-06-04T15:06:59.407Z,11.47
2018-06-04T15:09:27.374Z,10.60
2018-06-04T15:11:55.400Z,10.80
2018-06-04T15:14:23.512Z,9.87
2018-06-04T15:16:51.559Z,9.77
2018-06-04T15:19:19.582Z,11.37
2018-06-04T15:21:47.644Z,11.47
2018-06-04T15:24:15.762Z,10.77
2018-06-04T15:26:44.523Z,10.77
2018-06-04T15:29:12.664Z,11.80
2018-06-04T15:31:40.884Z,12.70
2018-06-04T15:34:09.054Z,12.50
2018-06-04T15:36:37.144Z,13.83
2018-06-04T15:39:06.621Z,15.20
2018-06-04T15:41:34.725Z,10.60
2018-06-04T15:44:03.242Z,12.20
2018-06-04T15:46:31.363Z,11.17
2018-06-04T15:48:59.418Z,11.43
2018-06-04T15:51:27.522Z,17.10
2018-06-04T15:53:55.546Z,12.37
2018-06-04T15:56:23.663Z,13.07
2018-06-04T15:58:51.746Z,13.30
2018-06-04T16:01:19.882Z,13.20
2018-06-04T16:03:47.944Z,11.83
2018-06-04T16:06:16.101Z,13.40
2018-06-04T16:08:44.278Z,12.57
2018-06-04T16:11:12.390Z,13.23
2018-06-04T16:13:40.481Z,12.87
2018-06-04T16:16:08.584Z,12.80
2018-06-04T16:18:36.659Z,13.70
2018-06-04T16:21:04.684Z,14.57
2018-06-04T16:23:32.811Z,11.77
2018-06-04T16:26:00.879Z,14.33
2018-06-04T16:28:28.959Z,18.83
2018-06-04T16:30:57.031Z,13.73
2018-06-04T16:33:25.052Z,14.30
2018-06-04T16:35:53.067Z,13.73
2018-06-04T16:38:21.089Z,12.97
2018-06-04T16:40:49.704Z,13.03
2018-06-04T16:43:17.780Z,12.13
2018-06-04T16:45:45.812Z,12.27
2018-06-04T16:48:13.939Z,13.60
2018-06-04T16:50:42.032Z,13.57
2018-06-04T16:53:10.136Z,14.60
2018-06-04T16:55:38.215Z,17.23
2018-06-04T16:58:06.361Z,15.00
2018-06-04T17:00:34.511Z,15.70
2018-06-04T17:03:02.627Z,15.20
2018-06-04T17:05:30.709Z,18.13
2018-06-04T17:07:58.806Z,13.30
2018-06-04T17:10:26.836Z,13.73
2018-06-04T17:12:54.856Z,13.83
2018-06-04T17:15:23.022Z,14.80
2018-06-04T17:17:51.126Z,13.40
2018-06-04T17:20:19.200Z,13.53
2018-06-04T17:22:47.300Z,17.60
2018-06-04T17:25:15.352Z,14.70
2018-06-04T17:27:43.481Z,16.47
2018-06-04T17:30:11.554Z,12.20
2018-06-04T17:32:39.660Z,12.37
2018-06-04T17:35:07.682Z,13.30
2018-06-04T17:37:35.776Z,12.00
2018-06-04T17:40:03.847Z,12.30
2018-06-04T17:42:31.912Z,12.23
2018-06-04T17:45:00.022Z,11.20
2018-06-04T17:47:28.107Z,10.53
2018-06-04T17:49:56.174Z,9.80
2018-06-04T17:52:24.280Z,9.90
2018-06-04T17:54:52.347Z,9.70
2018-06-04T17:57:20.376Z,8.47
2018-06-04T17:59:48.410Z,8.83
2018-06-04T18:02:16.516Z,8.63
2018-06-04T18:04:44.622Z,8.03
2018-06-04T18:07:12.742Z,9.30
2018-06-04T18:09:40.902Z,7.40
2018-06-04T18:12:08.926Z,9.13
2018-06-04T18:14:36.954Z,7.60
2018-06-04T18:17:05.067Z,7.43
2018-06-04T18:19:33.144Z,7.20
2018-06-04T18:22:01.231Z,6.50
2018-06-04T18:24:29.366Z,7.50
2018-06-04T18:26:57.497Z,8.70
2018-06-04T18:29:25.611Z,7.27
2018-06-04T18:31:53.615Z,7.90
2018-06-04T18:34:21.712Z,8.30
2018-06-04T18:36:49.842Z,7.47
2018-06-04T18:39:17.963Z,7.43
2018-06-04T18:41:45.967Z,7.40
2018-06-04T18:44:14.162Z,7.70
2018-06-04T18:46:42.283Z,7.80
2018-06-04T18:49:10.387Z,8.87
2018-06-04T18:51:38.527Z,9.07
2018-06-04T18:54:07.107Z,8.63
2018-06-04T18:56:35.192Z,8.73
2018-06-04T18:59:03.248Z,11.37
2018-06-04T19:01:31.308Z,8.07
2018-06-04T19:03:59.391Z,9.57
2018-06-04T19:06:27.577Z,10.87
2018-06-04T19:08:55.661Z,9.20
2018-06-04T19:11:23.660Z,9.90
2018-06-04T19:13:52.735Z,10.07
2018-06-04T19:16:20.855Z,12.20
2018-06-04T19:18:48.896Z,10.80
2018-06-04T19:21:16.968Z,10.43
2018-06-04T19:23:45.141Z,12.90
2018-06-04T19:26:13.176Z,10.93
2018-06-04T19:28:41.323Z,10.50
2018-06-04T19:31:09.337Z,10.10
2018-06-04T19:33:37.436Z,10.37
2018-06-04T19:36:05.527Z,10.03
2018-06-04T19:38:33.593Z,13.10
2018-06-04T19:41:01.737Z,10.73
2018-06-04T19:43:29.878Z,13.03
2018-06-04T19:45:58.016Z,11.60
2018-06-04T19:48:26.130Z,11.83
2018-06-04T19:50:54.828Z,14.60
2018-06-04T19:53:23.115Z,14.50
2018-06-04T19:55:51.278Z,15.23
2018-06-04T19:58:19.385Z,16.70
2018-06-04T20:00:47.529Z,14.33
2018-06-04T20:03:16.156Z,15.97
2018-06-04T20:05:44.333Z,18.17
2018-06-04T20:08:12.412Z,14.73
2018-06-04T20:10:40.539Z,18.37
2018-06-04T20:13:08.556Z,16.87
2018-06-04T20:15:36.646Z,16.77
2018-06-04T20:18:04.853Z,23.47
2018-06-04T20:20:33.186Z,18.20
2018-06-04T20:23:01.253Z,22.43
2018-06-04T20:25:29.391Z,22.03
2018-06-04T20:27:57.558Z,24.50
2018-06-04T20:30:25.693Z,22.67
2018-06-04T20:32:53.803Z,24.17
2018-06-04T20:35:22.005Z,29.53
2018-06-04T20:37:50.060Z,28.40
2018-06-04T20:40:18.183Z,27.63
2018-06-04T20:42:46.388Z,24.20
2018-06-04T20:45:14.671Z,24.30
2018-06-04T20:47:42.763Z,25.63
2018-06-04T20:50:10.905Z,25.40
2018-06-04T20:52:39.029Z,25.87
2018-06-04T20:55:07.053Z,26.07
2018-06-04T20:57:35.054Z,25.60
2018-06-04T21:00:03.153Z,26.10
2018-06-04T21:02:31.229Z,27.30
2018-06-04T21:04:59.216Z,24.63
2018-06-04T21:07:27.272Z,24.90
2018-06-04T21:09:55.482Z,25.30
2018-06-04T21:12:23.511Z,27.57
2018-06-04T21:14:51.553Z,29.07
2018-06-04T21:17:19.578Z,27.03
2018-06-04T21:19:47.688Z,31.03
2018-06-04T21:22:15.793Z,27.27
2018-06-04T21:24:44.025Z,29.60
2018-06-04T21:27:12.110Z,26.60
2018-06-04T21:29:40.209Z,28.13
2018-06-04T21:32:08.260Z,33.50
2018-06-04T21:34:36.422Z,30.40
2018-06-04T21:37:04.579Z,25.27
2018-06-04T21:39:32.584Z,28.27
2018-06-04T21:42:00.625Z,27.83
2018-06-04T21:44:28.821Z,27.23
2018-06-04T21:46:56.864Z,27.80
2018-06-04T21:49:25.116Z,27.17
2018-06-04T21:51:53.242Z,29.30
2018-06-04T21:54:21.316Z,25.77
2018-06-04T21:56:49.765Z,31.73
2018-06-04T21:59:17.907Z,30.67
2018-06-04T22:01:46.935Z,29.63
2018-06-04T22:04:15.127Z,28.30
2018-06-04T22:06:43.223Z,28.83
2018-06-04T22:09:11.280Z,27.10
2018-06-04T22:11:39.451Z,27.40
2018-06-04T22:14:07.594Z,28.07
2018-06-04T22:16:35.724Z,29.40
2018-06-04T22:19:03.793Z,27.83
2018-06-04T22:21:31.864Z,28.20
2018-06-04T22:24:00.007Z,26.70
2018-06-04T22:26:28.007Z,24.87
2018-06-04T22:28:56.127Z,25.50
2018-06-04T22:31:24.126Z,26.93
2018-06-04T22:33:52.256Z,30.73
2018-06-04T22:36:20.330Z,31.13
2018-06-04T22:38:48.392Z,29.27
2018-06-04T22:41:16.467Z,25.97
2018-06-04T22:43:44.664Z,29.53
2018-06-04T22:46:12.803Z,24.73
2018-06-04T22:48:40.930Z,24.07
2018-06-04T22:51:08.979Z,26.60
2018-06-04T22:53:37.035Z,26.67
2018-06-04T22:56:05.244Z,31.00
2018-06-04T22:58:33.356Z,28.03
2018-06-04T23:01:01.569Z,27.17
2018-06-04T23:03:29.736Z,28.30
2018-06-04T23:05:57.859Z,34.53
2018-06-04T23:08:26.008Z,27.53
2018-06-04T23:10:54.131Z,28.00
2018-06-04T23:13:22.197Z,27.23
2018-06-04T23:15:50.403Z,26.10
2018-06-04T23:18:18.517Z,27.70
2018-06-04T23:20:46.557Z,33.00
2018-06-04T23:23:14.690Z,29.20
2018-06-04T23:25:42.767Z,32.57
2018-06-04T23:28:11.003Z,29.10
2018-06-04T23:30:39.083Z,29.17
2018-06-04T23:33:07.150Z,31.93
2018-06-04T23:35:35.234Z,29.77
2018-06-04T23:38:03.363Z,33.23
2018-06-04T23:40:31.591Z,32.83
2018-06-04T23:42:59.756Z,31.40
2018-06-04T23:45:27.965Z,31.60
2018-06-04T23:47:56.035Z,32.00
2018-06-04T23:50:24.861Z,34.13
2018-06-04T23:52:52.947Z,35.77
2018-06-04T23:55:21.117Z,36.13
2018-06-04T23:57:49.324Z,39.33
